createdAt,value
2023-11-12T00:00:44.414Z,9.48
2023-11-12T00:03:11.421Z,10.35
2023-11-12T00:05:38.299Z,12.00
2023-11-12T00:08:05.294Z,11.55
2023-11-12T00:10:32.494Z,12.52
2023-11-12T00:13:00.540Z,10.75
2023-11-12T00:15:28.311Z,10.90
2023-11-12T00:17:55.460Z,11.40
2023-11-12T00:20:25.838Z,12.13
2023-11-12T00:22:52.892Z,10.80
2023-11-12T00:25:20.447Z,9.43
2023-11-12T00:27:47.488Z,8.98
2023-11-12T00:32:47.039Z,10.27
2023-11-12T00:35:14.457Z,10.38
2023-11-12T00:37:41.410Z,9.98
2023-11-12T00:40:08.634Z,9.07
2023-11-12T00:42:35.568Z,9.38
2023-11-12T00:45:02.462Z,9.57
2023-11-12T00:47:29.284Z,8.73
2023-11-12T00:49:56.214Z,9.32
2023-11-12T00:52:23.109Z,9.77
2023-11-12T00:54:49.947Z,9.98
2023-11-12T00:57:16.775Z,10.57
2023-11-12T00:59:43.661Z,9.38
2023-11-12T01:02:16.401Z,10.30
2023-11-12T01:04:43.487Z,8.68
2023-11-12T01:07:10.338Z,9.13
2023-11-12T01:09:38.328Z,9.45
2023-11-12T01:12:05.472Z,10.07
2023-11-12T01:14:32.349Z,10.55
2023-11-12T01:16:59.226Z,9.60
2023-11-12T01:19:26.185Z,9.00
2023-11-12T01:21:53.004Z,9.70
2023-11-12T01:24:21.104Z,10.15
2023-11-12T01:26:48.030Z,9.52
2023-11-12T01:29:15.640Z,10.43
2023-11-12T01:31:42.732Z,10.60
2023-11-12T01:34:09.638Z,10.93
2023-11-12T01:36:36.516Z,10.30
2023-11-12T01:39:03.843Z,10.20
2023-11-12T01:41:30.843Z,9.93
2023-11-12T01:43:58.441Z,8.75
2023-11-12T01:46:26.908Z,8.52
2023-11-12T01:48:55.640Z,9.88
2023-11-12T01:51:23.637Z,8.68
2023-11-12T01:53:50.635Z,10.52
2023-11-12T01:56:17.929Z,10.10
2023-11-12T01:58:45.672Z,9.20
2023-11-12T02:01:13.716Z,8.93
2023-11-12T02:03:42.670Z,8.68
2023-11-12T02:06:10.402Z,9.57
2023-11-12T02:08:37.663Z,9.05
2023-11-12T02:11:08.806Z,7.88
2023-11-12T02:13:39.524Z,8.63
2023-11-12T02:16:06.619Z,8.48
2023-11-12T02:18:33.630Z,8.90
2023-11-12T02:21:00.443Z,9.05
2023-11-12T02:23:27.736Z,9.07
2023-11-12T02:25:54.611Z,8.18
2023-11-12T02:28:21.421Z,8.75
2023-11-12T02:30:49.084Z,7.93
2023-11-12T02:33:16.143Z,8.00
2023-11-12T02:35:46.056Z,8.15
2023-11-12T02:38:13.082Z,7.68
2023-11-12T02:40:39.979Z,8.05
2023-11-12T02:43:06.871Z,7.68
2023-11-12T02:45:33.833Z,9.02
2023-11-12T02:48:00.825Z,7.43
2023-11-12T02:50:35.761Z,6.90
2023-11-12T02:53:04.654Z,7.20
2023-11-12T02:55:32.349Z,6.65
2023-11-12T02:57:59.623Z,6.20
2023-11-12T03:00:30.370Z,6.28
2023-11-12T03:03:02.034Z,5.82
2023-11-12T03:05:29.766Z,6.55
2023-11-12T03:07:59.598Z,5.90
2023-11-12T03:10:26.913Z,5.78
2023-11-12T03:12:55.021Z,5.97
2023-11-12T03:15:22.466Z,5.85
2023-11-12T03:17:52.458Z,4.95
2023-11-12T03:20:19.475Z,5.30
2023-11-12T03:22:47.675Z,5.22
2023-11-12T03:25:15.052Z,4.78
2023-11-12T03:27:41.923Z,5.32
2023-11-12T03:30:10.726Z,4.43
2023-11-12T03:32:37.886Z,4.40
2023-11-12T03:35:05.873Z,4.80
2023-11-12T03:37:32.904Z,5.32
2023-11-12T03:39:59.770Z,4.82
2023-11-12T03:42:26.685Z,4.88
2023-11-12T03:44:53.692Z,4.85
2023-11-12T03:47:20.737Z,4.95
2023-11-12T03:49:47.735Z,5.32
2023-11-12T03:52:14.621Z,4.40
2023-11-12T03:54:41.776Z,5.07
2023-11-12T03:57:08.975Z,5.13
2023-11-12T03:59:36.904Z,4.93
2023-11-12T04:02:06.944Z,5.35
2023-11-12T04:04:34.120Z,6.05
2023-11-12T04:07:01.212Z,5.22
2023-11-12T04:09:28.245Z,4.93
2023-11-12T04:11:55.213Z,5.22
2023-11-12T04:14:22.148Z,4.72
2023-11-12T04:16:49.184Z,5.70
2023-11-12T04:19:16.213Z,5.72
2023-11-12T04:21:45.997Z,5.05
2023-11-12T04:24:12.854Z,5.35
2023-11-12T04:26:39.744Z,5.13
2023-11-12T04:29:08.604Z,3.97
2023-11-12T04:31:36.999Z,4.68
2023-11-12T04:34:04.939Z,4.40
2023-11-12T04:36:32.314Z,4.65
2023-11-12T04:38:59.397Z,4.32
2023-11-12T04:41:26.927Z,4.55
2023-11-12T04:43:54.511Z,4.63
2023-11-12T04:46:22.137Z,5.15
2023-11-12T04:48:49.184Z,4.35
2023-11-12T04:51:18.599Z,4.22
2023-11-12T04:53:45.682Z,4.47
2023-11-12T04:56:13.034Z,3.92
2023-11-12T04:58:40.132Z,4.82
2023-11-12T05:01:07.939Z,4.47
2023-11-12T05:03:35.208Z,3.85
2023-11-12T05:06:02.200Z,4.20
2023-11-12T05:08:29.614Z,4.60
2023-11-12T05:10:57.120Z,3.67
2023-11-12T05:13:24.090Z,3.83
2023-11-12T05:15:51.080Z,4.65
2023-11-12T05:18:18.172Z,3.90
2023-11-12T05:20:45.039Z,4.13
2023-11-12T05:23:11.934Z,3.88
2023-11-12T05:25:38.786Z,4.18
2023-11-12T05:28:07.424Z,3.95
2023-11-12T05:30:34.853Z,4.30
2023-11-12T05:33:02.560Z,3.80
2023-11-12T05:35:29.440Z,4.15
2023-11-12T05:37:56.271Z,3.30
2023-11-12T05:40:23.122Z,4.03
2023-11-12T05:42:50.018Z,3.92
2023-11-12T05:45:19.173Z,4.15
2023-11-12T05:47:46.128Z,3.53
2023-11-12T05:50:13.989Z,3.50
2023-11-12T05:52:40.918Z,3.78
2023-11-12T05:55:07.821Z,3.40
2023-11-12T05:57:34.774Z,4.40
2023-11-12T06:00:01.656Z,4.00
2023-11-12T06:02:28.555Z,4.03
2023-11-12T06:04:55.429Z,4.20
2023-11-12T06:07:22.231Z,3.45
2023-11-12T06:09:49.178Z,3.97
2023-11-12T06:12:16.885Z,3.88
2023-11-12T06:14:46.147Z,3.90
2023-11-12T06:17:14.894Z,3.63
2023-11-12T06:19:41.751Z,3.38
2023-11-12T06:22:08.624Z,3.63
2023-11-12T06:24:35.539Z,3.85
2023-11-12T06:27:02.412Z,4.22
2023-11-12T06:29:29.833Z,3.83
2023-11-12T06:31:56.665Z,4.25
2023-11-12T06:34:24.012Z,3.33
2023-11-12T06:36:50.983Z,4.10
2023-11-12T06:39:17.967Z,4.25
2023-11-12T06:41:45.024Z,4.22
2023-11-12T06:44:13.612Z,4.00
2023-11-12T06:46:46.712Z,4.13
2023-11-12T06:49:13.603Z,4.43
2023-11-12T06:51:40.593Z,4.00
2023-11-12T06:54:11.088Z,5.18
2023-11-12T06:56:37.983Z,4.70
2023-11-12T06:59:04.903Z,4.15
2023-11-12T07:01:32.656Z,4.30
2023-11-12T07:04:00.746Z,4.28
2023-11-12T07:06:27.769Z,3.50
2023-11-12T07:08:54.646Z,3.58
2023-11-12T07:11:21.539Z,3.92
2023-11-12T07:13:48.414Z,3.63
2023-11-12T07:16:16.793Z,4.10
2023-11-12T07:18:51.588Z,4.07
2023-11-12T07:21:31.600Z,4.63
2023-11-12T07:23:59.207Z,4.65
2023-11-12T07:26:26.131Z,4.47
2023-11-12T07:28:53.416Z,3.75
2023-11-12T07:31:23.304Z,3.78
2023-11-12T07:33:50.570Z,3.80
2023-11-12T07:36:17.472Z,4.22
2023-11-12T07:38:44.336Z,3.75
2023-11-12T07:41:11.209Z,3.72
2023-11-12T07:43:38.356Z,4.20
2023-11-12T07:46:05.846Z,3.55
2023-11-12T07:48:33.740Z,4.40
2023-11-12T07:51:01.212Z,3.75
2023-11-12T07:53:28.095Z,4.47
2023-11-12T07:55:55.180Z,3.95
2023-11-12T07:58:22.130Z,4.40
2023-11-12T08:00:49.106Z,3.80
2023-11-12T08:03:15.997Z,4.05
2023-11-12T08:05:43.009Z,4.10
2023-11-12T08:08:09.867Z,4.78
2023-11-12T08:10:38.557Z,3.97
2023-11-12T08:13:05.638Z,4.47
2023-11-12T08:15:32.555Z,4.38
2023-11-12T08:17:59.589Z,3.95
2023-11-12T08:20:26.497Z,4.10
2023-11-12T08:22:53.275Z,4.35
2023-11-12T08:25:20.131Z,3.83
2023-11-12T08:27:47.044Z,4.57
2023-11-12T08:30:13.920Z,4.90
2023-11-12T08:32:40.814Z,5.07
2023-11-12T08:35:08.030Z,4.45
2023-11-12T08:37:35.234Z,4.75
2023-11-12T08:40:03.865Z,5.13
2023-11-12T08:42:30.768Z,4.10
2023-11-12T08:44:57.953Z,4.28
2023-11-12T08:47:24.922Z,4.00
2023-11-12T08:49:51.782Z,4.20
2023-11-12T08:52:19.130Z,4.30
2023-11-12T08:54:46.827Z,4.38
2023-11-12T08:57:13.753Z,5.00
2023-11-12T08:59:41.131Z,4.30
2023-11-12T09:02:08.117Z,3.90
2023-11-12T09:04:37.888Z,4.22
2023-11-12T09:07:05.341Z,4.90
2023-11-12T09:09:34.247Z,4.28
2023-11-12T09:12:01.293Z,5.35
2023-11-12T09:14:28.167Z,5.10
2023-11-12T09:16:55.132Z,4.53
2023-11-12T09:19:22.061Z,4.88
2023-11-12T09:21:49.026Z,5.40
2023-11-12T09:24:16.002Z,4.28
2023-11-12T09:26:42.877Z,5.22
2023-11-12T09:29:10.616Z,4.93
2023-11-12T09:31:37.501Z,5.10
2023-11-12T09:34:04.524Z,4.90
2023-11-12T09:36:31.586Z,5.28
2023-11-12T09:38:59.078Z,4.78
2023-11-12T09:41:26.422Z,4.93
2023-11-12T09:43:54.364Z,4.60
2023-11-12T09:46:24.111Z,5.05
2023-11-12T09:48:51.635Z,4.35
2023-11-12T09:51:19.735Z,4.50
2023-11-12T09:53:48.574Z,4.07
2023-11-12T09:56:15.616Z,4.50
2023-11-12T09:58:43.128Z,4.07
2023-11-12T10:01:12.570Z,4.40
2023-11-12T10:03:40.069Z,4.40
2023-11-12T10:06:07.785Z,4.10
2023-11-12T10:08:36.462Z,4.30
2023-11-12T10:11:16.276Z,4.47
2023-11-12T10:13:43.794Z,4.25
2023-11-12T10:16:32.620Z,3.92
2023-11-12T10:19:14.333Z,4.15
2023-11-12T10:21:55.197Z,4.35
2023-11-12T10:24:23.828Z,3.60
2023-11-12T10:26:50.999Z,3.33
2023-11-12T10:29:22.128Z,3.83
2023-11-12T10:31:51.929Z,3.58
2023-11-12T10:34:20.319Z,3.80
2023-11-12T10:37:02.214Z,3.60
2023-11-12T10:39:35.859Z,3.15
2023-11-12T10:42:02.984Z,2.97
2023-11-12T10:44:32.027Z,3.45
2023-11-12T10:47:02.201Z,3.80
2023-11-12T10:49:29.844Z,3.60
2023-11-12T10:51:57.909Z,3.42
2023-11-12T10:54:25.650Z,3.80
2023-11-12T10:56:52.903Z,3.75
2023-11-12T10:59:20.418Z,4.10
2023-11-12T11:01:47.488Z,3.38
2023-11-12T11:04:16.654Z,3.60
2023-11-12T11:06:43.639Z,3.42
2023-11-12T11:09:11.887Z,2.88
2023-11-12T11:11:40.318Z,2.92
2023-11-12T11:14:25.030Z,2.92
2023-11-12T11:16:53.471Z,2.88
2023-11-12T11:19:40.380Z,3.00
2023-11-12T11:22:22.960Z,3.13
2023-11-12T11:24:49.907Z,2.90
2023-11-12T11:27:20.194Z,3.10
2023-11-12T11:30:07.377Z,2.97
2023-11-12T11:32:34.430Z,2.67
2023-11-12T11:35:03.107Z,3.10
2023-11-12T11:37:48.888Z,2.90
2023-11-12T11:40:28.071Z,2.80
2023-11-12T11:43:13.576Z,2.80
2023-11-12T11:45:59.752Z,3.45
2023-11-12T11:48:26.706Z,3.13
2023-11-12T11:50:56.464Z,2.45
2023-11-12T11:53:27.440Z,2.50
2023-11-12T11:56:13.488Z,2.78
2023-11-12T11:58:46.362Z,2.70
2023-11-12T12:01:13.617Z,2.03
2023-11-12T12:03:40.659Z,2.50
2023-11-12T12:06:16.632Z,2.67
2023-11-12T12:08:53.610Z,2.92
2023-11-12T12:11:26.004Z,2.83
2023-11-12T12:14:00.450Z,2.58
2023-11-12T12:16:28.669Z,2.00
2023-11-12T12:18:55.932Z,2.38
2023-11-12T12:21:23.078Z,1.95
2023-11-12T12:23:50.224Z,2.30
2023-11-12T12:26:17.464Z,2.55
2023-11-12T12:28:44.340Z,2.30
2023-11-12T12:31:11.264Z,1.80
2023-11-12T12:33:39.213Z,1.95
2023-11-12T12:36:14.440Z,1.95
2023-11-12T12:39:20.067Z,1.60
2023-11-12T12:41:46.962Z,1.70
2023-11-12T12:44:20.266Z,2.00
2023-11-12T12:46:47.726Z,1.77
2023-11-12T12:49:29.861Z,1.40
2023-11-12T12:51:56.739Z,1.77
2023-11-12T12:54:24.665Z,1.90
2023-11-12T12:56:51.518Z,1.70
2023-11-12T12:59:18.344Z,2.05
2023-11-12T13:01:48.275Z,2.03
2023-11-12T13:04:15.687Z,2.30
2023-11-12T13:06:44.204Z,1.45
2023-11-12T13:09:17.875Z,1.52
2023-11-12T13:11:45.185Z,1.55
2023-11-12T13:14:12.112Z,1.50
2023-11-12T13:16:39.720Z,1.77
2023-11-12T13:19:12.519Z,1.60
2023-11-12T13:21:53.899Z,1.50
2023-11-12T13:24:26.462Z,1.80
2023-11-12T13:26:53.319Z,1.42
2023-11-12T13:29:20.153Z,1.63
2023-11-12T13:31:49.871Z,1.63
2023-11-12T13:34:18.255Z,1.48
2023-11-12T13:36:45.354Z,1.50
2023-11-12T13:39:14.806Z,1.50
2023-11-12T13:41:42.411Z,1.20
2023-11-12T13:44:10.410Z,1.23
2023-11-12T13:46:37.377Z,1.40
2023-11-12T13:49:05.414Z,1.50
2023-11-12T13:51:36.456Z,1.52
2023-11-12T13:54:06.278Z,1.58
2023-11-12T13:56:36.445Z,1.15
2023-11-12T13:59:04.294Z,1.48
2023-11-12T14:01:33.537Z,1.40
2023-11-12T14:04:01.164Z,1.10
2023-11-12T14:06:28.502Z,1.40
2023-11-12T14:08:56.417Z,1.08
2023-11-12T14:11:23.562Z,1.10
2023-11-12T14:13:50.510Z,1.15
2023-11-12T14:16:17.532Z,1.20
2023-11-12T14:18:45.534Z,1.25
2023-11-12T14:21:12.796Z,1.40
2023-11-12T14:23:40.887Z,1.17
2023-11-12T14:26:09.559Z,1.15
2023-11-12T14:28:36.871Z,1.20
2023-11-12T14:31:08.234Z,1.23
2023-11-12T14:36:02.473Z,1.35
2023-11-12T14:38:29.411Z,1.60
2023-11-12T14:40:56.425Z,1.27
2023-11-12T14:43:23.264Z,1.40
2023-11-12T14:45:50.361Z,1.23
2023-11-12T14:48:18.080Z,1.20
2023-11-12T14:50:45.137Z,1.35
2023-11-12T14:53:13.200Z,1.40
2023-11-12T14:55:43.024Z,1.58
2023-11-12T14:58:10.026Z,1.65
2023-11-12T15:00:37.448Z,1.73
2023-11-12T15:03:07.467Z,1.08
2023-11-12T15:05:35.087Z,1.20
2023-11-12T15:08:02.154Z,1.13
2023-11-12T15:10:30.100Z,1.20
2023-11-12T15:12:57.925Z,1.13
2023-11-12T15:15:24.997Z,1.40
2023-11-12T15:17:53.419Z,1.23
2023-11-12T15:20:20.607Z,1.30
2023-11-12T15:22:47.535Z,1.65
2023-11-12T15:25:17.709Z,1.10
2023-11-12T15:27:46.228Z,1.10
2023-11-12T15:30:13.772Z,0.90
2023-11-12T15:32:42.314Z,1.20
2023-11-12T15:35:14.657Z,1.23
2023-11-12T15:37:41.826Z,1.13
2023-11-12T15:40:24.175Z,0.98
2023-11-12T15:42:52.813Z,0.90
2023-11-12T15:45:20.421Z,1.10
2023-11-12T15:47:47.831Z,1.15
2023-11-12T15:50:15.316Z,1.02
2023-11-12T15:52:43.082Z,1.00
2023-11-12T15:55:10.776Z,0.90
2023-11-12T15:57:38.335Z,1.30
2023-11-12T16:00:09.512Z,1.00
2023-11-12T16:02:36.687Z,1.40
2023-11-12T16:05:04.216Z,1.10
2023-11-12T16:07:31.493Z,1.55
2023-11-12T16:09:59.077Z,1.20
2023-11-12T16:12:28.843Z,1.10
2023-11-12T16:14:55.753Z,0.98
2023-11-12T16:17:22.629Z,1.30
2023-11-12T16:19:49.518Z,1.30
2023-11-12T16:22:17.653Z,1.33
2023-11-12T16:24:44.640Z,1.00
2023-11-12T16:27:11.506Z,1.58
2023-11-12T16:29:38.354Z,1.33
2023-11-12T16:32:12.145Z,1.05
2023-11-12T16:34:39.460Z,1.20
2023-11-12T16:37:06.658Z,1.10
2023-11-12T16:39:41.075Z,1.40
2023-11-12T16:42:07.890Z,1.10
2023-11-12T16:44:34.681Z,1.17
2023-11-12T16:47:02.950Z,1.20
2023-11-12T16:49:30.643Z,0.95
2023-11-12T16:51:58.421Z,1.38
2023-11-12T16:54:25.256Z,1.30
2023-11-12T16:56:52.419Z,0.95
2023-11-12T16:59:19.380Z,1.33
2023-11-12T17:01:46.338Z,1.40
2023-11-12T17:04:13.344Z,1.40
2023-11-12T17:06:40.249Z,1.65
2023-11-12T17:09:10.367Z,2.15
2023-11-12T17:11:37.557Z,1.90
2023-11-12T17:14:04.758Z,1.75
2023-11-12T17:16:31.781Z,1.67
2023-11-12T17:19:01.347Z,1.67
2023-11-12T17:21:33.756Z,1.60
2023-11-12T17:24:04.804Z,1.63
2023-11-12T17:26:31.601Z,1.40
2023-11-12T17:28:59.666Z,1.95
2023-11-12T17:31:26.967Z,1.38
2023-11-12T17:33:57.746Z,1.75
2023-11-12T17:36:25.266Z,1.98
2023-11-12T17:38:52.128Z,1.83
2023-11-12T17:41:21.516Z,1.45
2023-11-12T17:43:48.845Z,1.77
2023-11-12T17:46:19.164Z,1.75
2023-11-12T17:48:48.488Z,2.00
2023-11-12T17:51:15.463Z,2.05
2023-11-12T17:53:42.538Z,1.70
2023-11-12T17:56:09.470Z,1.90
2023-11-12T17:58:36.464Z,1.55
2023-11-12T18:01:03.576Z,1.58
2023-11-12T18:03:35.184Z,1.88
2023-11-12T18:06:06.957Z,1.73
2023-11-12T18:08:40.205Z,1.70
2023-11-12T18:11:07.226Z,2.22
2023-11-12T18:13:37.450Z,1.60
2023-11-12T18:16:06.568Z,2.08
2023-11-12T18:18:33.964Z,2.08
2023-11-12T18:21:00.842Z,2.17
2023-11-12T18:23:27.720Z,1.83
2023-11-12T18:25:54.617Z,2.40
2023-11-12T18:28:22.597Z,2.30
2023-11-12T18:30:50.058Z,2.25
2023-11-12T18:33:17.267Z,2.33
2023-11-12T18:35:45.076Z,2.22
2023-11-12T18:38:12.705Z,2.30
2023-11-12T18:40:41.911Z,2.15
2023-11-12T18:43:11.568Z,2.40
2023-11-12T18:45:39.287Z,2.67
2023-11-12T18:48:06.799Z,2.67
2023-11-12T18:50:33.702Z,2.33
2023-11-12T18:53:00.532Z,2.50
2023-11-12T18:55:27.337Z,2.40
2023-11-12T18:57:54.436Z,2.88
2023-11-12T19:00:21.845Z,2.35
2023-11-12T19:02:51.656Z,2.70
2023-11-12T19:05:21.314Z,3.20
2023-11-12T19:07:48.221Z,2.95
2023-11-12T19:10:15.492Z,2.80
2023-11-12T19:12:43.965Z,3.05
2023-11-12T19:15:11.808Z,3.33
2023-11-12T19:17:44.223Z,3.10
2023-11-12T19:20:13.950Z,3.38
2023-11-12T19:22:41.422Z,3.25
2023-11-12T19:25:15.892Z,2.75
2023-11-12T19:27:43.775Z,3.75
2023-11-12T19:30:15.059Z,4.43
2023-11-12T19:32:43.730Z,4.07
2023-11-12T19:35:10.903Z,3.78
2023-11-12T19:37:39.038Z,3.97
2023-11-12T19:40:08.509Z,3.80
2023-11-12T19:42:35.743Z,4.05
2023-11-12T19:45:06.564Z,3.65
2023-11-12T19:47:34.249Z,4.32
2023-11-12T19:50:01.341Z,4.05
2023-11-12T19:52:29.710Z,4.30
2023-11-12T19:54:56.905Z,4.18
2023-11-12T19:57:24.210Z,4.38
2023-11-12T19:59:51.110Z,3.55
2023-11-12T20:02:18.334Z,3.75
2023-11-12T20:04:45.785Z,3.83
2023-11-12T20:07:12.937Z,4.30
2023-11-12T20:09:40.537Z,4.57
2023-11-12T20:12:07.755Z,5.05
2023-11-12T20:14:34.791Z,4.35
2023-11-12T20:17:01.724Z,4.10
2023-11-12T20:19:29.112Z,4.75
2023-11-12T20:21:57.122Z,4.20
2023-11-12T20:24:24.188Z,4.63
2023-11-12T20:26:53.274Z,3.92
2023-11-12T20:29:22.995Z,3.65
2023-11-12T20:31:55.456Z,3.35
2023-11-12T20:34:23.787Z,3.88
2023-11-12T20:36:51.969Z,3.70
2023-11-12T20:39:21.522Z,4.03
2023-11-12T20:41:51.325Z,2.95
2023-11-12T20:44:18.882Z,3.35
2023-11-12T20:46:46.727Z,3.45
2023-11-12T20:49:17.661Z,3.78
2023-11-12T20:51:46.087Z,2.88
2023-11-12T20:54:18.933Z,3.03
2023-11-12T20:56:46.061Z,2.90
2023-11-12T20:59:14.181Z,3.20
2023-11-12T21:01:41.416Z,3.60
2023-11-12T21:04:12.400Z,3.25
2023-11-12T21:06:41.238Z,2.90
2023-11-12T21:09:09.904Z,3.00
2023-11-12T21:11:41.131Z,3.08
2023-11-12T21:14:12.368Z,3.15
2023-11-12T21:16:39.672Z,2.97
2023-11-12T21:19:07.258Z,3.50
2023-11-12T21:21:34.532Z,3.35
2023-11-12T21:24:06.150Z,3.40
2023-11-12T21:26:34.545Z,2.97
2023-11-12T21:29:01.782Z,3.20
2023-11-12T21:31:28.685Z,3.30
2023-11-12T21:33:55.601Z,2.90
2023-11-12T21:36:23.302Z,3.30
2023-11-12T21:38:50.576Z,3.05
2023-11-12T21:41:18.954Z,2.55
2023-11-12T21:43:46.079Z,3.30
2023-11-12T21:46:16.713Z,3.13
2023-11-12T21:48:44.015Z,3.25
2023-11-12T21:51:10.958Z,3.60
2023-11-12T21:53:38.208Z,2.88
2023-11-12T21:56:05.657Z,3.15
2023-11-12T21:58:33.397Z,3.22
2023-11-12T22:01:00.719Z,2.85
2023-11-12T22:03:28.186Z,2.63
2023-11-12T22:05:55.722Z,3.20
2023-11-12T22:08:23.052Z,3.13
2023-11-12T22:10:52.566Z,3.00
2023-11-12T22:13:20.062Z,3.30
2023-11-12T22:15:48.812Z,3.00
2023-11-12T22:18:16.041Z,3.00
2023-11-12T22:20:42.928Z,3.80
2023-11-12T22:23:12.149Z,2.70
2023-11-12T22:25:40.082Z,3.08
2023-11-12T22:28:07.604Z,3.15
2023-11-12T22:30:34.620Z,3.65
2023-11-12T22:33:01.645Z,3.35
2023-11-12T22:35:28.601Z,3.03
2023-11-12T22:37:55.483Z,3.25
2023-11-12T22:40:24.040Z,2.83
2023-11-12T22:42:53.000Z,2.63
2023-11-12T22:45:20.231Z,2.45
2023-11-12T22:47:48.271Z,2.67
2023-11-12T22:50:18.516Z,2.58
2023-11-12T22:52:45.551Z,2.78
2023-11-12T22:55:13.189Z,2.55
2023-11-12T22:57:41.215Z,2.70
2023-11-12T23:00:40.225Z,3.20
2023-11-12T23:03:11.080Z,2.55
2023-11-12T23:05:38.010Z,2.58
2023-11-12T23:08:07.537Z,3.05
2023-11-12T23:10:38.553Z,3.20
2023-11-12T23:13:06.163Z,3.13
2023-11-12T23:15:34.675Z,2.67
2023-11-12T23:18:01.988Z,3.28
2023-11-12T23:20:29.531Z,2.72
2023-11-12T23:22:56.473Z,2.42
2023-11-12T23:25:23.422Z,2.50
2023-11-12T23:27:50.561Z,2.53
2023-11-12T23:30:18.506Z,2.67
2023-11-12T23:32:45.498Z,3.30
2023-11-12T23:35:12.396Z,2.17
2023-11-12T23:37:39.376Z,2.95
2023-11-12T23:40:06.628Z,2.63
2023-11-12T23:42:34.395Z,2.42
2023-11-12T23:45:01.307Z,2.65
2023-11-12T23:47:28.276Z,2.90
2023-11-12T23:49:55.110Z,2.42
2023-11-12T23:52:22.712Z,2.38
2023-11-12T23:54:49.663Z,2.50
2023-11-12T23:57:16.513Z,2.80
2023-11-12T23:59:43.401Z,2.38
